Time;durP1;ratioP1;P1;durP2;ratioP2;P2;SDS_P1;SDS_P2;PMS_P1;PMS_P2;Temp;Humidity;BMP_temperature;BMP_pressure;BME280_temperature;BME280_humidity;BME280_pressure;Samples;Min_cycle;Max_cycle;Signal;HPM_P1;HPM_P2
2022/03/14 00:01:10;;;;;;;18.25;12.52;;;;;;;;;;4992420;28;20522;-86
2022/03/14 00:03:48;;;;;;;17.77;12.15;;;;;;;;;;4992362;28;20244;-86
2022/03/14 00:06:14;;;;;;;16.63;11.90;;;;;;;;;;4993696;28;20113;-86
2022/03/14 00:08:44;;;;;;;18.92;12.32;;;;;;;;;;4993604;28;20441;-86
2022/03/14 00:11:10;;;;;;;17.73;12.70;;;;;;;;;;4976220;28;20129;-86
2022/03/14 00:13:37;;;;;;;20.70;13.38;;;;;;;;;;4992890;28;20125;-86
2022/03/14 00:16:04;;;;;;;16.70;12.45;;;;;;;;;;4992120;28;20117;-86
2022/03/14 00:18:32;;;;;;;18.17;12.50;;;;;;;;;;4992196;28;20125;-86
2022/03/14 00:20:58;;;;;;;18.83;12.40;;;;;;;;;;4993458;28;20126;-86
2022/03/14 00:23:26;;;;;;;18.33;12.45;;;;;;;;;;4993630;28;20047;-86
2022/03/14 00:25:54;;;;;;;18.52;12.52;;;;;;;;;;4993206;28;20046;-86
2022/03/14 00:28:20;;;;;;;17.85;12.30;;;;;;;;;;4993368;28;20078;-85
2022/03/14 00:30:45;;;;;;;19.88;13.05;;;;;;;;;;4991672;28;20552;-86
2022/03/14 00:33:11;;;;;;;18.38;12.57;;;;;;;;;;4992102;28;20045;-85
2022/03/14 00:35:37;;;;;;;18.05;13.25;;;;;;;;;;4992024;28;20038;-86
2022/03/14 00:38:04;;;;;;;21.05;13.23;;;;;;;;;;4992358;28;20414;-86
2022/03/14 00:40:30;;;;;;;19.42;13.05;;;;;;;;;;4993118;28;20042;-86
2022/03/14 00:42:56;;;;;;;18.60;13.35;;;;;;;;;;4992180;28;20100;-86
2022/03/14 00:45:23;;;;;;;18.75;13.18;;;;;;;;;;4991609;28;20437;-87
2022/03/14 00:47:49;;;;;;;19.30;13.05;;;;;;;;;;4992198;28;20394;-86
2022/03/14 00:50:15;;;;;;;19.98;13.13;;;;;;;;;;4993226;28;20042;-86
2022/03/14 00:52:41;;;;;;;17.85;12.80;;;;;;;;;;4992524;28;20034;-86
2022/03/14 00:55:07;;;;;;;19.58;13.73;;;;;;;;;;4996865;28;20430;-86
2022/03/14 00:57:34;;;;;;;17.70;12.80;;;;;;;;;;4995642;28;20109;-86
2022/03/14 01:00:00;;;;;;;17.40;12.32;;;;;;;;;;4995529;28;20054;-86
2022/03/14 01:02:26;;;;;;;18.88;13.38;;;;;;;;;;4996828;28;20042;-86
2022/03/14 01:04:52;;;;;;;18.50;13.55;;;;;;;;;;4995348;28;20121;-86
2022/03/14 01:07:18;;;;;;;18.08;13.07;;;;;;;;;;4979191;28;20125;-85
2022/03/14 01:09:44;;;;;;;18.20;13.27;;;;;;;;;;4995306;28;20046;-86
2022/03/14 01:12:10;;;;;;;18.25;12.73;;;;;;;;;;4996922;28;20389;-86
2022/03/14 01:14:36;;;;;;;19.02;13.40;;;;;;;;;;4995392;28;20038;-86
2022/03/14 01:17:02;;;;;;;17.63;13.10;;;;;;;;;;4995236;28;20050;-86
2022/03/14 01:19:28;;;;;;;17.95;12.63;;;;;;;;;;4995141;28;20104;-86
2022/03/14 01:21:54;;;;;;;17.88;12.93;;;;;;;;;;4995509;28;20129;-87
2022/03/14 01:24:20;;;;;;;19.92;13.80;;;;;;;;;;4996693;28;20046;-86
2022/03/14 01:26:46;;;;;;;18.63;12.80;;;;;;;;;;4996356;28;20047;-86
2022/03/14 01:29:14;;;;;;;18.80;13.55;;;;;;;;;;4994958;28;20128;-86
2022/03/14 01:31:40;;;;;;;19.45;14.30;;;;;;;;;;4995240;28;20397;-86
2022/03/14 01:34:08;;;;;;;18.23;13.35;;;;;;;;;;4995168;28;20054;-85
2022/03/14 01:36:34;;;;;;;19.38;13.35;;;;;;;;;;4978766;28;20053;-86
2022/03/14 01:39:00;;;;;;;20.35;13.25;;;;;;;;;;4995064;28;20490;-86
2022/03/14 01:41:29;;;;;;;18.08;13.30;;;;;;;;;;4995951;28;20042;-86
2022/03/14 01:43:55;;;;;;;19.65;12.85;;;;;;;;;;4978974;28;20042;-86
2022/03/14 01:46:22;;;;;;;19.13;13.82;;;;;;;;;;4995947;28;20094;-86
2022/03/14 01:48:51;;;;;;;18.58;12.35;;;;;;;;;;4994836;28;20046;-86
2022/03/14 01:51:18;;;;;;;17.40;12.65;;;;;;;;;;4995980;28;20038;-86
2022/03/14 01:53:44;;;;;;;19.15;12.82;;;;;;;;;;4994979;28;20046;-86
2022/03/14 01:56:12;;;;;;;18.27;12.15;;;;;;;;;;4978117;28;20081;-85
2022/03/14 01:58:39;;;;;;;16.00;11.68;;;;;;;;;;4994521;28;20088;-86
2022/03/14 02:01:05;;;;;;;14.80;10.52;;;;;;;;;;4994380;28;20050;-86
2022/03/14 02:03:31;;;;;;;15.30;11.32;;;;;;;;;;4995796;28;20117;-86
2022/03/14 02:05:58;;;;;;;15.77;11.63;;;;;;;;;;4994208;28;20046;-86
2022/03/14 02:08:24;;;;;;;14.00;10.15;;;;;;;;;;4994727;28;20072;-86
2022/03/14 02:10:50;;;;;;;14.50;9.75;;;;;;;;;;4994078;28;20042;-86
2022/03/14 02:13:16;;;;;;;14.40;9.35;;;;;;;;;;4994360;28;20043;-86
2022/03/14 02:15:41;;;;;;;12.13;8.55;;;;;;;;;;4994194;28;20038;-86
2022/03/14 02:18:07;;;;;;;14.05;9.27;;;;;;;;;;4995732;28;20078;-86
2022/03/14 02:20:34;;;;;;;11.15;8.25;;;;;;;;;;4994104;28;20038;-88
2022/03/14 02:23:00;;;;;;;17.70;9.45;;;;;;;;;;4995577;28;20050;-86
2022/03/14 02:25:26;;;;;;;14.23;9.70;;;;;;;;;;4995225;28;20117;-86
2022/03/14 02:27:52;;;;;;;14.50;9.55;;;;;;;;;;4995465;28;20076;-86
2022/03/14 02:30:18;;;;;;;13.73;9.05;;;;;;;;;;4994988;28;20061;-86
2022/03/14 02:32:46;;;;;;;13.05;9.50;;;;;;;;;;4993973;28;20068;-86
2022/03/14 02:35:13;;;;;;;14.18;9.63;;;;;;;;;;4995036;28;20367;-86
2022/03/14 02:37:39;;;;;;;13.10;8.23;;;;;;;;;;4993720;28;20580;-86
2022/03/14 02:40:06;;;;;;;15.30;8.90;;;;;;;;;;4993857;28;20050;-86
2022/03/14 02:42:32;;;;;;;11.70;7.90;;;;;;;;;;4993562;28;20042;-86
2022/03/14 02:44:59;;;;;;;11.98;8.40;;;;;;;;;;4993873;28;20383;-86
2022/03/14 02:47:25;;;;;;;12.35;8.05;;;;;;;;;;4993428;28;20122;-86
2022/03/14 02:49:51;;;;;;;12.07;7.93;;;;;;;;;;4993667;28;20126;-86
2022/03/14 02:52:16;;;;;;;13.18;8.52;;;;;;;;;;4993391;28;20042;-86
2022/03/14 02:54:43;;;;;;;13.63;8.45;;;;;;;;;;4993731;28;20057;-87
2022/03/14 02:57:09;;;;;;;12.57;7.82;;;;;;;;;;4993442;28;20054;-86
2022/03/14 02:59:35;;;;;;;12.27;7.40;;;;;;;;;;4993426;28;20047;-86
2022/03/14 03:02:01;;;;;;;13.23;8.60;;;;;;;;;;4993228;28;20050;-86
2022/03/14 03:04:27;;;;;;;12.48;7.68;;;;;;;;;;4994821;28;20038;-86
2022/03/14 03:06:54;;;;;;;14.73;7.65;;;;;;;;;;4993071;28;20057;-86
2022/03/14 03:09:19;;;;;;;11.95;7.97;;;;;;;;;;4993279;28;20046;-86
2022/03/14 03:11:45;;;;;;;11.75;7.68;;;;;;;;;;4994539;28;20109;-86
2022/03/14 03:14:12;;;;;;;11.63;7.28;;;;;;;;;;4994488;28;20041;-88
2022/03/14 03:16:38;;;;;;;12.57;6.03;;;;;;;;;;4992746;28;20077;-86
2022/03/14 03:19:06;;;;;;;9.73;6.28;;;;;;;;;;4994477;28;20038;-86
2022/03/14 03:21:34;;;;;;;9.20;6.07;;;;;;;;;;4994180;28;20042;-87
2022/03/14 03:24:00;;;;;;;8.73;6.05;;;;;;;;;;4993150;28;20132;-87
2022/03/14 03:26:26;;;;;;;9.75;6.30;;;;;;;;;;4993982;28;20042;-86
2022/03/14 03:28:52;;;;;;;9.07;6.38;;;;;;;;;;4994363;28;20042;-86
2022/03/14 03:31:19;;;;;;;10.80;6.60;;;;;;;;;;4992759;28;20054;-86
2022/03/14 03:33:45;;;;;;;9.93;6.38;;;;;;;;;;4977004;28;20473;-86
2022/03/14 03:36:12;;;;;;;9.95;6.72;;;;;;;;;;4993979;28;20038;-86
2022/03/14 03:38:38;;;;;;;11.50;6.20;;;;;;;;;;4993060;28;20470;-86
2022/03/14 03:41:04;;;;;;;10.35;6.80;;;;;;;;;;4994017;28;20042;-86
2022/03/14 03:43:30;;;;;;;9.00;5.97;;;;;;;;;;4994133;28;20049;-86
2022/03/14 03:45:56;;;;;;;11.45;5.75;;;;;;;;;;4994044;28;20042;-86
2022/03/14 03:48:22;;;;;;;9.65;6.50;;;;;;;;;;4992645;28;20042;-86
2022/03/14 03:50:48;;;;;;;9.60;6.05;;;;;;;;;;4992678;28;20375;-87
2022/03/14 03:53:14;;;;;;;9.07;5.93;;;;;;;;;;4993645;28;20049;-86
2022/03/14 03:55:40;;;;;;;8.75;5.65;;;;;;;;;;4992333;28;20046;-86
2022/03/14 03:58:06;;;;;;;9.40;5.47;;;;;;;;;;4992372;28;20045;-86
2022/03/14 04:00:32;;;;;;;8.02;5.32;;;;;;;;;;4992402;28;20401;-87
2022/03/14 04:02:58;;;;;;;9.15;5.38;;;;;;;;;;4992220;28;20034;-86
2022/03/14 04:05:27;;;;;;;9.43;5.40;;;;;;;;;;4992439;28;20122;-86
2022/03/14 04:07:59;;;;;;;9.93;5.50;;;;;;;;;;4975894;28;20510;-86
2022/03/14 04:10:29;;;;;;;10.00;5.45;;;;;;;;;;4992770;28;20050;-86
2022/03/14 04:13:03;;;;;;;9.23;5.63;;;;;;;;;;4992473;28;20057;-86
2022/03/14 04:15:29;;;;;;;9.10;5.53;;;;;;;;;;4993755;28;20042;-86
2022/03/14 04:18:02;;;;;;;9.80;5.65;;;;;;;;;;4992209;28;20050;-88
2022/03/14 04:20:28;;;;;;;9.57;5.55;;;;;;;;;;4993690;28;20049;-87
2022/03/14 04:22:54;;;;;;;6.95;4.47;;;;;;;;;;4992062;28;20073;-86
2022/03/14 04:25:20;;;;;;;7.97;4.90;;;;;;;;;;4992199;28;20042;-87
2022/03/14 04:27:46;;;;;;;7.10;4.50;;;;;;;;;;4992590;28;20406;-86
2022/03/14 04:30:13;;;;;;;8.45;4.38;;;;;;;;;;4996128;28;20265;-86
2022/03/14 04:32:39;;;;;;;7.20;4.88;;;;;;;;;;4995935;28;20121;-86
2022/03/14 04:35:06;;;;;;;7.90;4.45;;;;;;;;;;4996131;28;20074;-86
2022/03/14 04:37:31;;;;;;;7.90;4.80;;;;;;;;;;4995807;28;20046;-86
2022/03/14 04:39:57;;;;;;;9.35;4.50;;;;;;;;;;4996105;28;20060;-86
2022/03/14 04:42:23;;;;;;;7.65;4.03;;;;;;;;;;4995829;28;20085;-87
2022/03/14 04:44:50;;;;;;;7.32;5.20;;;;;;;;;;4996139;28;20046;-86
2022/03/14 04:47:17;;;;;;;8.40;4.80;;;;;;;;;;4995660;28;20137;-86
2022/03/14 04:49:43;;;;;;;7.68;5.15;;;;;;;;;;4997403;28;20042;-86
2022/03/14 04:52:09;;;;;;;8.25;4.82;;;;;;;;;;4995583;28;20046;-86
2022/03/14 04:54:35;;;;;;;8.70;4.95;;;;;;;;;;4997298;28;20046;-85
2022/03/14 04:57:01;;;;;;;8.90;5.30;;;;;;;;;;4995640;28;20193;-86
2022/03/14 04:59:27;;;;;;;8.68;5.15;;;;;;;;;;4997044;28;20049;-86
2022/03/14 05:01:53;;;;;;;9.07;5.07;;;;;;;;;;4979565;28;20398;-86
2022/03/14 05:04:19;;;;;;;10.73;5.22;;;;;;;;;;4995911;28;20401;-85
2022/03/14 05:06:45;;;;;;;7.90;4.82;;;;;;;;;;4995387;28;20052;-86
2022/03/14 05:09:11;;;;;;;7.28;4.40;;;;;;;;;;4995514;28;20505;-86
2022/03/14 05:11:38;;;;;;;9.23;5.93;;;;;;;;;;4996882;28;20038;-86
2022/03/14 05:14:05;;;;;;;8.52;5.10;;;;;;;;;;4995215;28;20515;-86
2022/03/14 05:16:31;;;;;;;8.27;4.30;;;;;;;;;;4995314;28;20054;-86
2022/03/14 05:18:57;;;;;;;8.05;4.97;;;;;;;;;;4996629;28;20424;-86
2022/03/14 05:21:23;;;;;;;6.85;4.28;;;;;;;;;;4995260;28;20052;-87
2022/03/14 05:23:49;;;;;;;8.77;4.95;;;;;;;;;;4995279;28;20062;-86
2022/03/14 05:26:15;;;;;;;7.03;4.47;;;;;;;;;;4996589;28;20049;-86
2022/03/14 05:28:41;;;;;;;8.23;4.68;;;;;;;;;;4994724;28;20035;-86
2022/03/14 05:31:07;;;;;;;6.85;3.90;;;;;;;;;;4996698;28;20078;-87
2022/03/14 05:33:33;;;;;;;7.43;4.00;;;;;;;;;;4995124;28;20065;-87
2022/03/14 05:36:01;;;;;;;7.43;4.22;;;;;;;;;;4994927;28;20045;-86
2022/03/14 05:38:28;;;;;;;7.20;4.38;;;;;;;;;;4978412;28;20048;-87
2022/03/14 05:40:54;;;;;;;7.22;4.10;;;;;;;;;;4996512;28;20053;-86
2022/03/14 05:43:21;;;;;;;6.55;3.75;;;;;;;;;;4994718;28;20046;-88
2022/03/14 05:45:47;;;;;;;7.22;4.00;;;;;;;;;;4994754;28;20051;-87
2022/03/14 05:48:13;;;;;;;7.00;4.18;;;;;;;;;;4996035;28;20114;-87
2022/03/14 05:50:39;;;;;;;8.15;4.38;;;;;;;;;;4996049;28;20238;-88
2022/03/14 05:53:05;;;;;;;7.72;4.60;;;;;;;;;;4995740;28;20073;-87
2022/03/14 05:55:31;;;;;;;8.25;4.57;;;;;;;;;;4994572;28;20125;-88
2022/03/14 05:57:57;;;;;;;7.60;4.38;;;;;;;;;;4995197;28;20124;-87
2022/03/14 06:00:24;;;;;;;7.75;4.68;;;;;;;;;;4996085;28;20046;-88
2022/03/14 06:02:52;;;;;;;8.27;4.28;;;;;;;;;;4994310;28;20050;-88
2022/03/14 06:05:18;;;;;;;7.95;4.32;;;;;;;;;;4978731;28;20050;-87
2022/03/14 06:07:45;;;;;;;7.07;4.43;;;;;;;;;;4995118;28;20042;-87
2022/03/14 06:10:15;;;;;;;6.78;4.38;;;;;;;;;;4955181;28;20047;-87
2022/03/14 06:12:41;;;;;;;7.22;4.40;;;;;;;;;;4953414;28;20434;-89
2022/03/14 06:15:09;;;;;;;6.70;4.18;;;;;;;;;;4974538;28;20061;-88
2022/03/14 06:17:35;;;;;;;7.00;4.47;;;;;;;;;;4974328;28;20047;-87
2022/03/14 06:20:01;;;;;;;6.45;3.72;;;;;;;;;;4974210;28;20050;-88
2022/03/14 06:22:27;;;;;;;7.38;4.15;;;;;;;;;;4974537;28;20498;-87
2022/03/14 06:24:53;;;;;;;8.32;4.13;;;;;;;;;;4975619;28;20121;-87
2022/03/14 06:27:20;;;;;;;6.40;3.92;;;;;;;;;;4973965;28;20051;-87
2022/03/14 06:29:46;;;;;;;6.63;4.18;;;;;;;;;;4975136;28;20054;-88
2022/03/14 06:32:13;;;;;;;7.63;4.03;;;;;;;;;;4961295;28;20442;-88
2022/03/14 06:34:39;;;;;;;6.20;3.83;;;;;;;;;;4954480;28;20058;-88
2022/03/14 06:37:09;;;;;;;7.97;4.32;;;;;;;;;;4954722;28;20043;-89
2022/03/14 06:39:36;;;;;;;7.97;4.47;;;;;;;;;;4968934;28;20101;-87
2022/03/14 06:42:03;;;;;;;8.60;4.82;;;;;;;;;;4973895;28;20046;-88
2022/03/14 06:44:29;;;;;;;7.18;4.30;;;;;;;;;;4977993;28;20101;-88
2022/03/14 06:46:55;;;;;;;7.18;4.45;;;;;;;;;;4954219;28;20043;-89
2022/03/14 06:49:21;;;;;;;6.90;3.85;;;;;;;;;;4955876;28;20399;-86
2022/03/14 06:51:48;;;;;;;6.88;4.13;;;;;;;;;;4973950;28;20050;-88
2022/03/14 06:54:14;;;;;;;7.10;4.38;;;;;;;;;;4973249;28;20054;-89
2022/03/14 06:56:43;;;;;;;7.07;4.28;;;;;;;;;;4973326;28;20042;-87
2022/03/14 06:59:09;;;;;;;7.28;4.20;;;;;;;;;;4973389;28;20089;-87
2022/03/14 07:01:35;;;;;;;7.25;4.45;;;;;;;;;;4963449;28;20039;-87
2022/03/14 07:04:02;;;;;;;8.32;4.53;;;;;;;;;;4955291;28;20576;-87
2022/03/14 07:06:28;;;;;;;7.60;4.60;;;;;;;;;;4954114;28;20070;-87
2022/03/14 07:08:54;;;;;;;7.10;4.72;;;;;;;;;;4953918;28;20160;-87
2022/03/14 07:11:20;;;;;;;7.25;4.38;;;;;;;;;;4955256;28;20068;-88
2022/03/14 07:13:46;;;;;;;6.90;4.07;;;;;;;;;;4968436;28;20046;-87
2022/03/14 07:16:12;;;;;;;7.70;4.68;;;;;;;;;;4973297;28;20047;-87
2022/03/14 07:18:38;;;;;;;8.68;4.60;;;;;;;;;;4974406;28;20505;-87
2022/03/14 07:21:04;;;;;;;7.40;4.55;;;;;;;;;;4972965;28;20065;-87
2022/03/14 07:23:30;;;;;;;8.15;4.72;;;;;;;;;;4972870;28;20137;-87
2022/03/14 07:25:56;;;;;;;8.70;5.32;;;;;;;;;;4973351;28;20070;-87
2022/03/14 07:28:22;;;;;;;7.65;4.95;;;;;;;;;;4974306;28;20081;-87
2022/03/14 07:30:48;;;;;;;7.93;4.90;;;;;;;;;;4972740;28;20478;-87
2022/03/14 07:33:15;;;;;;;7.32;5.30;;;;;;;;;;4973938;28;20491;-86
2022/03/14 07:35:41;;;;;;;9.50;5.20;;;;;;;;;;4956698;28;20058;-87
2022/03/14 07:38:10;;;;;;;8.90;5.20;;;;;;;;;;4973963;28;20042;-87
2022/03/14 07:40:36;;;;;;;11.88;4.90;;;;;;;;;;4973040;28;20035;-87
2022/03/14 07:43:03;;;;;;;8.88;5.40;;;;;;;;;;4974245;28;20038;-87
2022/03/14 07:45:29;;;;;;;7.53;4.70;;;;;;;;;;4972959;28;20521;-87
2022/03/14 07:47:56;;;;;;;9.30;5.15;;;;;;;;;;4972602;28;20053;-87
2022/03/14 07:50:23;;;;;;;7.07;4.97;;;;;;;;;;4973660;28;20049;-87
2022/03/14 07:52:49;;;;;;;8.07;5.95;;;;;;;;;;4953796;28;20062;-87
2022/03/14 07:55:15;;;;;;;7.90;5.00;;;;;;;;;;4953363;28;20387;-86
2022/03/14 07:57:42;;;;;;;8.55;5.72;;;;;;;;;;4953117;28;20047;-88
2022/03/14 08:00:09;;;;;;;8.75;6.00;;;;;;;;;;4953090;28;20050;-88
2022/03/14 08:02:35;;;;;;;8.65;5.90;;;;;;;;;;4953572;28;20098;-87
2022/03/14 08:05:01;;;;;;;9.02;5.55;;;;;;;;;;4954193;28;20070;-87
2022/03/14 08:07:28;;;;;;;8.35;5.65;;;;;;;;;;4954512;28;20142;-86
2022/03/14 08:09:55;;;;;;;9.30;5.75;;;;;;;;;;4954271;28;20054;-87
2022/03/14 08:12:22;;;;;;;9.10;5.90;;;;;;;;;;4953179;28;20055;-87
2022/03/14 08:14:48;;;;;;;8.68;5.70;;;;;;;;;;4954352;28;20066;-86
2022/03/14 08:17:16;;;;;;;8.57;6.10;;;;;;;;;;4968081;28;20479;-87
2022/03/14 08:19:42;;;;;;;9.15;5.95;;;;;;;;;;4972573;28;20046;-87
2022/03/14 08:22:08;;;;;;;8.43;5.25;;;;;;;;;;4972797;28;20041;-88
2022/03/14 08:24:34;;;;;;;9.13;5.53;;;;;;;;;;4973078;28;20043;-88
2022/03/14 08:27:01;;;;;;;11.60;6.30;;;;;;;;;;4972661;28;20047;-88
2022/03/14 08:29:27;;;;;;;10.43;6.60;;;;;;;;;;4956503;28;20290;-87
2022/03/14 08:31:53;;;;;;;9.30;5.75;;;;;;;;;;4972722;28;20101;-87
2022/03/14 08:34:19;;;;;;;9.65;5.82;;;;;;;;;;4972367;28;20457;-88
2022/03/14 08:36:45;;;;;;;9.70;6.45;;;;;;;;;;4973836;28;20129;-87
2022/03/14 08:39:12;;;;;;;9.07;6.15;;;;;;;;;;4972444;28;20086;-88
2022/03/14 08:41:39;;;;;;;9.07;6.20;;;;;;;;;;4973998;28;20034;-88
2022/03/14 08:44:05;;;;;;;9.05;6.00;;;;;;;;;;4972452;28;20038;-87
2022/03/14 08:46:31;;;;;;;9.70;6.10;;;;;;;;;;4972407;28;20127;-86
2022/03/14 08:48:57;;;;;;;10.52;6.38;;;;;;;;;;4973579;28;20482;-86
2022/03/14 08:51:24;;;;;;;10.13;6.43;;;;;;;;;;4974032;28;20043;-86
2022/03/14 08:53:50;;;;;;;10.80;6.75;;;;;;;;;;4972507;28;20085;-86
2022/03/14 08:56:16;;;;;;;11.32;6.60;;;;;;;;;;4973761;28;20070;-86
2022/03/14 08:58:42;;;;;;;9.80;6.03;;;;;;;;;;4972499;28;20047;-87
2022/03/14 09:01:11;;;;;;;11.68;7.40;;;;;;;;;;4972275;28;20049;-87
2022/03/14 09:03:37;;;;;;;10.82;6.53;;;;;;;;;;4972728;28;20482;-86
2022/03/14 09:06:04;;;;;;;10.93;7.28;;;;;;;;;;4973557;28;20053;-87
2022/03/14 09:08:31;;;;;;;10.45;7.30;;;;;;;;;;4972889;28;20053;-86
2022/03/14 09:10:58;;;;;;;10.23;6.80;;;;;;;;;;4955260;28;20085;-86
2022/03/14 09:13:24;;;;;;;9.90;7.00;;;;;;;;;;4973784;28;20062;-87
2022/03/14 09:15:51;;;;;;;10.07;7.32;;;;;;;;;;4975913;28;20047;-86
2022/03/14 09:18:17;;;;;;;10.10;7.20;;;;;;;;;;4977438;28;20039;-87
2022/03/14 09:20:44;;;;;;;10.43;7.57;;;;;;;;;;4959817;28;20082;-87
2022/03/14 09:23:10;;;;;;;12.57;7.65;;;;;;;;;;4975698;28;20054;-87
2022/03/14 09:25:36;;;;;;;11.20;7.95;;;;;;;;;;4975600;28;20050;-89
2022/03/14 09:28:03;;;;;;;11.82;8.20;;;;;;;;;;4975726;28;20053;-87
2022/03/14 09:30:29;;;;;;;10.57;7.20;;;;;;;;;;4975395;28;20059;-87
2022/03/14 09:32:55;;;;;;;11.10;7.85;;;;;;;;;;4975932;28;20198;-87
2022/03/14 09:35:22;;;;;;;11.23;7.45;;;;;;;;;;4975490;28;20070;-88
2022/03/14 09:37:49;;;;;;;11.85;7.80;;;;;;;;;;4975783;28;20468;-87
2022/03/14 09:40:22;;;;;;;12.43;8.18;;;;;;;;;;4976672;28;20046;-88
2022/03/14 09:42:50;;;;;;;10.05;8.10;;;;;;;;;;4975662;28;20046;-88
2022/03/14 09:45:16;;;;;;;11.27;7.80;;;;;;;;;;4976710;28;20410;-87
2022/03/14 09:47:50;;;;;;;11.90;7.97;;;;;;;;;;4974995;28;20047;-91
2022/03/14 09:50:36;;;;;;;11.27;7.57;;;;;;;;;;4976646;28;20053;-87
2022/03/14 09:53:06;;;;;;;11.55;7.72;;;;;;;;;;4974976;28;20049;-86
2022/03/14 09:55:35;;;;;;;13.27;9.20;;;;;;;;;;4974978;28;20042;-88
2022/03/14 09:58:01;;;;;;;12.82;8.90;;;;;;;;;;4958490;28;20093;-88
2022/03/14 10:00:27;;;;;;;10.63;8.18;;;;;;;;;;4976346;28;20039;-89
2022/03/14 10:02:53;;;;;;;11.30;8.50;;;;;;;;;;4975384;28;20394;-87
2022/03/14 10:05:19;;;;;;;12.93;8.68;;;;;;;;;;4958884;28;20259;-88
2022/03/14 10:07:46;;;;;;;12.25;8.68;;;;;;;;;;4976368;28;20047;-87
2022/03/14 10:10:12;;;;;;;13.80;10.05;;;;;;;;;;4976113;28;20042;-88
2022/03/14 10:12:39;;;;;;;12.43;9.23;;;;;;;;;;4975403;28;20055;-86
2022/03/14 10:15:05;;;;;;;12.50;8.93;;;;;;;;;;4974964;28;20046;-92
2022/03/14 10:17:34;;;;;;;13.57;10.00;;;;;;;;;;4974792;28;20082;-86
2022/03/14 10:20:00;;;;;;;18.95;10.80;;;;;;;;;;4974838;28;20050;-88
2022/03/14 10:22:33;;;;;;;15.93;11.65;;;;;;;;;;4974827;28;20154;-88
2022/03/14 10:25:09;;;;;;;19.90;13.43;;;;;;;;;;4975502;28;20082;-88
2022/03/14 10:27:37;;;;;;;19.25;13.00;;;;;;;;;;4975829;28;20051;-87
2022/03/14 10:30:05;;;;;;;19.15;12.85;;;;;;;;;;4958340;28;20058;-88
2022/03/14 10:32:34;;;;;;;16.80;10.48;;;;;;;;;;4975779;28;20166;-87
2022/03/14 10:35:07;;;;;;;14.73;9.25;;;;;;;;;;4958210;28;20550;-88
2022/03/14 10:37:35;;;;;;;14.00;7.80;;;;;;;;;;4974585;28;20086;-87
2022/03/14 10:40:06;;;;;;;15.23;8.07;;;;;;;;;;4974729;28;20057;-87
2022/03/14 10:42:44;;;;;;;13.77;6.85;;;;;;;;;;4975847;28;20043;-87
2022/03/14 10:45:10;;;;;;;14.00;7.15;;;;;;;;;;4975474;28;20082;-87
2022/03/14 10:47:37;;;;;;;14.90;8.70;;;;;;;;;;4975458;28;20434;-87
2022/03/14 10:50:03;;;;;;;17.15;8.80;;;;;;;;;;4975728;28;20090;-87
2022/03/14 10:52:30;;;;;;;16.15;8.40;;;;;;;;;;4974251;28;20047;-87
2022/03/14 10:54:56;;;;;;;15.25;8.73;;;;;;;;;;4975400;28;20042;-87
2022/03/14 10:57:25;;;;;;;19.02;9.75;;;;;;;;;;4975131;28;20133;-87
2022/03/14 10:59:52;;;;;;;20.50;10.00;;;;;;;;;;4975194;28;20169;-88
2022/03/14 11:02:20;;;;;;;19.17;10.70;;;;;;;;;;4973638;28;20049;-88
2022/03/14 11:04:50;;;;;;;19.75;10.98;;;;;;;;;;4974205;28;20085;-87
2022/03/14 11:07:17;;;;;;;19.77;11.07;;;;;;;;;;4973692;28;20127;-88
2022/03/14 11:09:50;;;;;;;20.17;10.57;;;;;;;;;;4974132;28;20042;-87
2022/03/14 11:12:21;;;;;;;21.67;11.70;;;;;;;;;;4975307;28;20038;-88
2022/03/14 11:15:07;;;;;;;24.15;12.00;;;;;;;;;;4974979;28;20045;-88
2022/03/14 11:17:37;;;;;;;24.83;12.38;;;;;;;;;;4975052;28;20366;-87
2022/03/14 11:20:03;;;;;;;22.02;12.50;;;;;;;;;;4974898;28;20042;-87
2022/03/14 11:22:31;;;;;;;26.85;11.90;;;;;;;;;;4973697;28;20054;-87
2022/03/14 11:24:58;;;;;;;20.05;11.23;;;;;;;;;;4973874;28;20506;-88
2022/03/14 11:27:29;;;;;;;23.13;11.80;;;;;;;;;;4973365;28;20050;-89
2022/03/14 11:30:06;;;;;;;21.77;11.27;;;;;;;;;;4973550;28;20125;-88
2022/03/14 11:32:33;;;;;;;22.33;12.25;;;;;;;;;;4974749;28;20089;-87
2022/03/14 11:35:01;;;;;;;20.88;12.13;;;;;;;;;;4974811;28;20051;-87
2022/03/14 11:37:30;;;;;;;24.92;12.40;;;;;;;;;;4973027;28;20034;-87
2022/03/14 11:39:57;;;;;;;22.85;12.02;;;;;;;;;;4972729;28;20110;-87
2022/03/14 11:42:23;;;;;;;21.85;12.45;;;;;;;;;;4974584;28;20089;-87
2022/03/14 11:44:50;;;;;;;21.00;11.68;;;;;;;;;;4973592;28;20046;-88
2022/03/14 11:47:18;;;;;;;25.77;12.15;;;;;;;;;;4972890;28;20066;-87
2022/03/14 11:49:45;;;;;;;23.35;12.18;;;;;;;;;;4973678;28;20039;-87
2022/03/14 11:52:11;;;;;;;22.00;11.50;;;;;;;;;;4974123;28;20039;-88
2022/03/14 11:54:38;;;;;;;24.45;11.48;;;;;;;;;;4972872;28;20502;-88
2022/03/14 11:57:05;;;;;;;21.95;10.85;;;;;;;;;;4973798;28;20046;-87
2022/03/14 11:59:32;;;;;;;20.05;9.98;;;;;;;;;;4957315;28;20050;-87
2022/03/14 12:02:00;;;;;;;22.25;11.32;;;;;;;;;;4973206;28;20035;-87
2022/03/14 12:04:28;;;;;;;20.58;10.20;;;;;;;;;;4974495;28;20169;-88
2022/03/14 12:06:55;;;;;;;18.00;10.35;;;;;;;;;;4972832;28;20058;-87
2022/03/14 12:09:24;;;;;;;17.20;9.70;;;;;;;;;;4973050;28;20056;-87
2022/03/14 12:12:17;;;;;;;17.92;9.10;;;;;;;;;;4971796;28;20105;-87
2022/03/14 12:14:44;;;;;;;18.55;8.75;;;;;;;;;;4969267;28;20083;-88
2022/03/14 12:17:13;;;;;;;14.95;8.70;;;;;;;;;;4973515;28;20434;-87
2022/03/14 12:19:49;;;;;;;21.70;9.48;;;;;;;;;;4973124;28;20134;-87
2022/03/14 12:22:39;;;;;;;20.90;9.30;;;;;;;;;;4973792;28;20434;-87
2022/03/14 12:25:07;;;;;;;19.30;9.23;;;;;;;;;;4972938;28;20474;-87
2022/03/14 12:27:37;;;;;;;23.10;8.90;;;;;;;;;;4972310;28;20047;-87
2022/03/14 12:30:15;;;;;;;16.20;9.48;;;;;;;;;;4972798;28;20061;-88
2022/03/14 12:32:52;;;;;;;24.90;10.50;;;;;;;;;;4973030;28;20054;-88
2022/03/14 12:35:21;;;;;;;22.95;12.38;;;;;;;;;;4973086;28;20050;-87
2022/03/14 12:37:52;;;;;;;20.63;11.63;;;;;;;;;;4972443;28;20054;-86
2022/03/14 12:40:21;;;;;;;22.85;12.05;;;;;;;;;;4972700;28;20083;-89
2022/03/14 12:42:47;;;;;;;21.60;12.85;;;;;;;;;;4972620;28;20126;-86
2022/03/14 12:45:18;;;;;;;21.30;12.45;;;;;;;;;;4971715;28;20074;-86
2022/03/14 12:47:49;;;;;;;24.67;13.45;;;;;;;;;;4972264;28;20047;-87
2022/03/14 12:50:35;;;;;;;26.35;13.77;;;;;;;;;;4976836;28;20071;-86
2022/03/14 12:53:01;;;;;;;25.67;13.15;;;;;;;;;;4977339;28;20479;-86
2022/03/14 12:55:27;;;;;;;22.85;13.73;;;;;;;;;;4976580;28;20050;-86
2022/03/14 12:57:54;;;;;;;22.83;13.77;;;;;;;;;;4976008;28;20557;-86
2022/03/14 13:00:20;;;;;;;25.95;13.90;;;;;;;;;;4976364;28;20054;-86
2022/03/14 13:02:47;;;;;;;25.13;13.80;;;;;;;;;;4977361;28;20046;-88
2022/03/14 13:05:18;;;;;;;26.08;14.35;;;;;;;;;;4977634;28;20038;-88
2022/03/14 13:07:44;;;;;;;24.05;13.90;;;;;;;;;;4975804;28;20494;-87
2022/03/14 13:10:09;;;;;;;28.70;15.35;;;;;;;;;;4959899;28;20050;-87
2022/03/14 13:12:35;;;;;;;29.13;15.10;;;;;;;;;;4977443;28;20442;-87
2022/03/14 13:15:05;;;;;;;26.75;16.42;;;;;;;;;;4977221;28;20070;-88
2022/03/14 13:17:31;;;;;;;29.50;16.13;;;;;;;;;;4975655;28;20122;-89
2022/03/14 13:19:57;;;;;;;29.00;16.70;;;;;;;;;;4977475;28;20077;-88
2022/03/14 13:22:23;;;;;;;22.05;16.05;;;;;;;;;;4975636;28;20054;-88
2022/03/14 13:24:50;;;;;;;23.98;16.80;;;;;;;;;;4977142;28;20043;-86
2022/03/14 13:27:25;;;;;;;28.58;17.67;;;;;;;;;;4975480;28;20069;-87
2022/03/14 13:29:54;;;;;;;26.05;17.75;;;;;;;;;;4975501;28;20054;-87
2022/03/14 13:32:21;;;;;;;27.95;17.98;;;;;;;;;;4975790;28;20055;-87
2022/03/14 13:35:03;;;;;;;26.30;18.73;;;;;;;;;;4975654;28;20178;-87
2022/03/14 13:37:29;;;;;;;26.02;17.02;;;;;;;;;;4976493;28;20552;-88
2022/03/14 13:39:55;;;;;;;27.65;17.55;;;;;;;;;;4977007;28;20044;-88
2022/03/14 13:42:21;;;;;;;30.85;17.60;;;;;;;;;;4975248;28;20098;-88
2022/03/14 13:44:49;;;;;;;26.85;16.75;;;;;;;;;;4975437;28;20046;-86
2022/03/14 13:47:22;;;;;;;25.60;16.63;;;;;;;;;;4959077;28;20057;-87
2022/03/14 13:49:59;;;;;;;30.90;16.80;;;;;;;;;;4975433;28;20074;-88
2022/03/14 13:52:26;;;;;;;24.67;15.35;;;;;;;;;;4975358;28;20077;-87
2022/03/14 13:54:53;;;;;;;31.25;15.90;;;;;;;;;;4976919;28;20062;-87
2022/03/14 13:57:22;;;;;;;23.08;14.25;;;;;;;;;;4975320;28;20054;-88
2022/03/14 13:59:51;;;;;;;28.02;14.43;;;;;;;;;;4976223;28;20130;-88
2022/03/14 14:02:37;;;;;;;24.73;14.38;;;;;;;;;;4976374;28;20055;-88
2022/03/14 14:05:08;;;;;;;25.17;14.50;;;;;;;;;;4975094;28;20049;-88
2022/03/14 14:07:34;;;;;;;25.92;13.93;;;;;;;;;;4975852;28;20495;-88
2022/03/14 14:10:01;;;;;;;23.60;14.02;;;;;;;;;;4975341;28;20438;-87
2022/03/14 14:12:28;;;;;;;23.25;12.77;;;;;;;;;;4976090;28;20046;-87
2022/03/14 14:14:56;;;;;;;22.00;12.75;;;;;;;;;;4976280;28;20081;-88
2022/03/14 14:17:22;;;;;;;26.00;12.73;;;;;;;;;;4974856;28;20497;-88
2022/03/14 14:20:07;;;;;;;20.95;12.75;;;;;;;;;;4976310;28;20039;-88
2022/03/14 14:22:51;;;;;;;18.92;9.93;;;;;;;;;;4975823;28;20485;-87
2022/03/14 14:25:17;;;;;;;18.50;9.55;;;;;;;;;;4974772;28;20039;-86
2022/03/14 14:27:50;;;;;;;17.30;6.90;;;;;;;;;;4975817;28;20418;-87
2022/03/14 14:30:24;;;;;;;13.80;7.68;;;;;;;;;;4975643;28;20553;-88
2022/03/14 14:32:50;;;;;;;16.83;7.85;;;;;;;;;;4974491;28;20046;-87